Alpine, Alabama
Current Conditions -  °F | °C
As of 5:15 PM on Monday 22 Dec 2014 (Local Time) from KSCD Reporting Station
Overcast Overcast  
Wind Chill: 51°   Ceiling: 2100
Heat Index: 51°   Visibility: 10mi
Dew Point: 51°   Wind: 8mph
Humidity: 100%   Direction: 110°ESE
Pressure: 29.83"   Gusts: 16mph
Location:  33.34°N, 86.23°W
Report Text: KSCD 222315Z AUTO 11007G14KT 10SM SCT008 OVC021 10/10 A2983 RMK AO2 LTG DSNT E AND S T01030103
Loading
Personal Weather Stations






























Interactive Weather Map New forecast layout! Learn more

10-Day Weather Forecast

Advertisements
Track Severe Weather on mobile